sensor_id;sensor_type;location;lat;lon;timestamp;P1;durP1;ratioP1;P2;durP2;ratioP2
19944;SDS011;10134;50.952;6.930;2022-07-05T00:00:53;4.38;;;2.35;;
19944;SDS011;10134;50.952;6.930;2022-07-05T00:03:21;3.50;;;2.35;;
19944;SDS011;10134;50.952;6.930;2022-07-05T00:05:48;4.07;;;2.70;;
19944;SDS011;10134;50.952;6.930;2022-07-05T00:08:16;3.30;;;2.22;;
19944;SDS011;10134;50.952;6.930;2022-07-05T00:10:43;4.50;;;2.20;;
19944;SDS011;10134;50.952;6.930;2022-07-05T00:13:11;5.97;;;2.30;;
19944;SDS011;10134;50.952;6.930;2022-07-05T00:15:38;2.70;;;2.13;;
19944;SDS011;10134;50.952;6.930;2022-07-05T00:18:05;4.88;;;2.22;;
19944;SDS011;10134;50.952;6.930;2022-07-05T00:20:33;4.45;;;2.50;;
19944;SDS011;10134;50.952;6.930;2022-07-05T00:23:00;3.00;;;2.28;;
19944;SDS011;10134;50.952;6.930;2022-07-05T00:25:28;3.90;;;2.30;;
19944;SDS011;10134;50.952;6.930;2022-07-05T00:27:55;7.22;;;2.60;;
19944;SDS011;10134;50.952;6.930;2022-07-05T00:30:22;3.22;;;1.98;;
19944;SDS011;10134;50.952;6.930;2022-07-05T00:32:50;5.18;;;2.30;;
19944;SDS011;10134;50.952;6.930;2022-07-05T00:35:17;4.20;;;2.70;;
19944;SDS011;10134;50.952;6.930;2022-07-05T00:37:45;3.63;;;2.53;;
19944;SDS011;10134;50.952;6.930;2022-07-05T00:40:12;2.75;;;2.22;;
19944;SDS011;10134;50.952;6.930;2022-07-05T00:42:39;4.10;;;2.42;;
19944;SDS011;10134;50.952;6.930;2022-07-05T00:45:07;5.22;;;2.40;;
19944;SDS011;10134;50.952;6.930;2022-07-05T00:47:35;2.80;;;2.28;;
19944;SDS011;10134;50.952;6.930;2022-07-05T00:50:03;6.00;;;2.78;;
19944;SDS011;10134;50.952;6.930;2022-07-05T00:52:31;5.80;;;2.72;;
19944;SDS011;10134;50.952;6.930;2022-07-05T00:54:58;3.15;;;2.50;;
19944;SDS011;10134;50.952;6.930;2022-07-05T00:57:26;2.20;;;2.00;;
19944;SDS011;10134;50.952;6.930;2022-07-05T00:59:53;3.08;;;2.33;;
19944;SDS011;10134;50.952;6.930;2022-07-05T01:02:20;5.32;;;2.42;;
19944;SDS011;10134;50.952;6.930;2022-07-05T01:04:50;2.97;;;2.65;;
19944;SDS011;10134;50.952;6.930;2022-07-05T01:07:18;2.45;;;2.17;;
19944;SDS011;10134;50.952;6.930;2022-07-05T01:09:48;3.70;;;2.47;;
19944;SDS011;10134;50.952;6.930;2022-07-05T01:12:16;3.50;;;2.38;;
19944;SDS011;10134;50.952;6.930;2022-07-05T01:14:44;2.53;;;2.30;;
19944;SDS011;10134;50.952;6.930;2022-07-05T01:17:13;3.25;;;2.53;;
19944;SDS011;10134;50.952;6.930;2022-07-05T01:19:41;3.92;;;2.65;;
19944;SDS011;10134;50.952;6.930;2022-07-05T01:22:12;3.50;;;2.35;;
19944;SDS011;10134;50.952;6.930;2022-07-05T01:24:45;3.88;;;2.45;;
19944;SDS011;10134;50.952;6.930;2022-07-05T01:27:14;4.80;;;2.58;;
19944;SDS011;10134;50.952;6.930;2022-07-05T01:29:42;4.32;;;2.55;;
19944;SDS011;10134;50.952;6.930;2022-07-05T01:32:09;4.75;;;2.17;;
19944;SDS011;10134;50.952;6.930;2022-07-05T01:34:37;5.78;;;2.38;;
19944;SDS011;10134;50.952;6.930;2022-07-05T01:37:06;4.15;;;1.90;;
19944;SDS011;10134;50.952;6.930;2022-07-05T01:39:34;4.05;;;3.08;;
19944;SDS011;10134;50.952;6.930;2022-07-05T01:42:02;6.32;;;2.65;;
19944;SDS011;10134;50.952;6.930;2022-07-05T01:44:29;3.38;;;2.55;;
19944;SDS011;10134;50.952;6.930;2022-07-05T01:46:58;6.18;;;3.10;;
19944;SDS011;10134;50.952;6.930;2022-07-05T01:49:35;5.18;;;2.75;;
19944;SDS011;10134;50.952;6.930;2022-07-05T01:52:08;5.30;;;3.00;;
19944;SDS011;10134;50.952;6.930;2022-07-05T01:54:38;3.15;;;2.25;;
19944;SDS011;10134;50.952;6.930;2022-07-05T01:57:07;4.78;;;2.55;;
19944;SDS011;10134;50.952;6.930;2022-07-05T01:59:35;3.10;;;2.30;;
19944;SDS011;10134;50.952;6.930;2022-07-05T02:02:04;4.60;;;2.55;;
19944;SDS011;10134;50.952;6.930;2022-07-05T02:04:34;4.70;;;2.25;;
19944;SDS011;10134;50.952;6.930;2022-07-05T02:07:05;4.55;;;2.70;;
19944;SDS011;10134;50.952;6.930;2022-07-05T02:09:34;5.85;;;2.90;;
19944;SDS011;10134;50.952;6.930;2022-07-05T02:12:02;3.30;;;2.38;;
19944;SDS011;10134;50.952;6.930;2022-07-05T02:14:32;2.95;;;2.55;;
19944;SDS011;10134;50.952;6.930;2022-07-05T02:17:01;3.58;;;2.30;;
19944;SDS011;10134;50.952;6.930;2022-07-05T02:19:30;3.70;;;2.50;;
19944;SDS011;10134;50.952;6.930;2022-07-05T02:21:58;3.95;;;2.90;;
19944;SDS011;10134;50.952;6.930;2022-07-05T02:24:25;3.80;;;2.60;;
19944;SDS011;10134;50.952;6.930;2022-07-05T02:27:00;5.20;;;2.72;;
19944;SDS011;10134;50.952;6.930;2022-07-05T02:29:28;4.13;;;2.53;;
19944;SDS011;10134;50.952;6.930;2022-07-05T02:31:57;2.92;;;2.47;;
19944;SDS011;10134;50.952;6.930;2022-07-05T02:34:26;5.88;;;2.75;;
19944;SDS011;10134;50.952;6.930;2022-07-05T02:36:54;3.35;;;2.58;;
19944;SDS011;10134;50.952;6.930;2022-07-05T02:39:21;2.60;;;2.30;;
19944;SDS011;10134;50.952;6.930;2022-07-05T02:41:51;4.18;;;2.53;;
19944;SDS011;10134;50.952;6.930;2022-07-05T02:44:19;3.38;;;2.53;;
19944;SDS011;10134;50.952;6.930;2022-07-05T02:46:48;4.53;;;2.47;;
19944;SDS011;10134;50.952;6.930;2022-07-05T02:49:15;4.47;;;2.45;;
19944;SDS011;10134;50.952;6.930;2022-07-05T02:51:42;5.43;;;2.65;;
19944;SDS011;10134;50.952;6.930;2022-07-05T02:54:12;3.75;;;2.42;;
19944;SDS011;10134;50.952;6.930;2022-07-05T02:56:40;3.67;;;2.20;;
19944;SDS011;10134;50.952;6.930;2022-07-05T02:59:10;4.75;;;2.30;;
19944;SDS011;10134;50.952;6.930;2022-07-05T03:01:38;5.43;;;3.03;;
19944;SDS011;10134;50.952;6.930;2022-07-05T03:04:10;3.08;;;2.42;;
19944;SDS011;10134;50.952;6.930;2022-07-05T03:06:42;6.13;;;2.45;;
19944;SDS011;10134;50.952;6.930;2022-07-05T03:09:14;3.38;;;2.30;;
19944;SDS011;10134;50.952;6.930;2022-07-05T03:11:42;4.25;;;2.38;;
19944;SDS011;10134;50.952;6.930;2022-07-05T03:14:09;2.72;;;2.40;;
19944;SDS011;10134;50.952;6.930;2022-07-05T03:16:37;3.85;;;2.60;;
19944;SDS011;10134;50.952;6.930;2022-07-05T03:19:06;4.13;;;2.58;;
19944;SDS011;10134;50.952;6.930;2022-07-05T03:21:33;3.45;;;2.10;;
19944;SDS011;10134;50.952;6.930;2022-07-05T03:24:00;4.38;;;2.10;;
19944;SDS011;10134;50.952;6.930;2022-07-05T03:26:28;4.97;;;2.08;;
19944;SDS011;10134;50.952;6.930;2022-07-05T03:28:55;5.00;;;2.65;;
19944;SDS011;10134;50.952;6.930;2022-07-05T03:31:22;3.70;;;2.38;;
19944;SDS011;10134;50.952;6.930;2022-07-05T03:33:51;4.80;;;2.60;;
19944;SDS011;10134;50.952;6.930;2022-07-05T03:36:18;5.63;;;2.55;;
19944;SDS011;10134;50.952;6.930;2022-07-05T03:38:47;4.43;;;2.42;;
19944;SDS011;10134;50.952;6.930;2022-07-05T03:41:15;5.95;;;2.40;;
19944;SDS011;10134;50.952;6.930;2022-07-05T03:43:42;4.22;;;2.40;;
19944;SDS011;10134;50.952;6.930;2022-07-05T03:46:10;6.00;;;2.30;;
19944;SDS011;10134;50.952;6.930;2022-07-05T03:48:40;5.43;;;2.50;;
19944;SDS011;10134;50.952;6.930;2022-07-05T03:51:10;3.35;;;2.22;;
19944;SDS011;10134;50.952;6.930;2022-07-05T03:53:38;4.50;;;2.42;;
19944;SDS011;10134;50.952;6.930;2022-07-05T03:56:06;5.18;;;2.58;;
19944;SDS011;10134;50.952;6.930;2022-07-05T03:58:34;3.42;;;2.40;;
19944;SDS011;10134;50.952;6.930;2022-07-05T04:01:02;3.80;;;2.75;;
19944;SDS011;10134;50.952;6.930;2022-07-05T04:03:29;6.80;;;2.70;;
19944;SDS011;10134;50.952;6.930;2022-07-05T04:05:58;6.10;;;3.22;;
19944;SDS011;10134;50.952;6.930;2022-07-05T04:08:27;6.68;;;3.53;;
19944;SDS011;10134;50.952;6.930;2022-07-05T04:10:55;5.05;;;3.10;;
19944;SDS011;10134;50.952;6.930;2022-07-05T04:13:22;5.40;;;3.28;;
19944;SDS011;10134;50.952;6.930;2022-07-05T04:15:53;5.95;;;3.10;;
19944;SDS011;10134;50.952;6.930;2022-07-05T04:18:22;3.97;;;2.67;;
19944;SDS011;10134;50.952;6.930;2022-07-05T04:20:50;4.80;;;3.20;;
19944;SDS011;10134;50.952;6.930;2022-07-05T04:23:18;4.03;;;2.85;;
19944;SDS011;10134;50.952;6.930;2022-07-05T04:25:46;4.85;;;3.00;;
19944;SDS011;10134;50.952;6.930;2022-07-05T04:28:23;4.53;;;2.70;;
19944;SDS011;10134;50.952;6.930;2022-07-05T04:30:53;5.13;;;3.10;;
19944;SDS011;10134;50.952;6.930;2022-07-05T04:33:22;4.72;;;3.38;;
19944;SDS011;10134;50.952;6.930;2022-07-05T04:35:53;4.63;;;2.78;;
19944;SDS011;10134;50.952;6.930;2022-07-05T04:38:21;4.75;;;2.78;;
19944;SDS011;10134;50.952;6.930;2022-07-05T04:40:49;6.28;;;2.83;;
19944;SDS011;10134;50.952;6.930;2022-07-05T04:43:18;5.47;;;2.70;;
19944;SDS011;10134;50.952;6.930;2022-07-05T04:45:45;5.10;;;2.88;;
19944;SDS011;10134;50.952;6.930;2022-07-05T04:48:13;6.00;;;2.75;;
19944;SDS011;10134;50.952;6.930;2022-07-05T04:50:41;9.27;;;3.30;;
19944;SDS011;10134;50.952;6.930;2022-07-05T04:53:09;4.82;;;2.65;;
19944;SDS011;10134;50.952;6.930;2022-07-05T04:55:36;5.72;;;2.83;;
19944;SDS011;10134;50.952;6.930;2022-07-05T04:58:04;4.35;;;3.08;;
19944;SDS011;10134;50.952;6.930;2022-07-05T05:00:31;4.45;;;2.67;;
19944;SDS011;10134;50.952;6.930;2022-07-05T05:02:58;2.38;;;2.15;;
19944;SDS011;10134;50.952;6.930;2022-07-05T05:05:26;4.68;;;2.97;;
19944;SDS011;10134;50.952;6.930;2022-07-05T05:07:53;3.78;;;2.40;;
19944;SDS011;10134;50.952;6.930;2022-07-05T05:10:20;4.40;;;2.80;;
19944;SDS011;10134;50.952;6.930;2022-07-05T05:12:48;3.60;;;2.58;;
19944;SDS011;10134;50.952;6.930;2022-07-05T05:15:15;4.40;;;2.63;;
19944;SDS011;10134;50.952;6.930;2022-07-05T05:17:43;3.80;;;2.40;;
19944;SDS011;10134;50.952;6.930;2022-07-05T05:20:14;4.25;;;2.50;;
19944;SDS011;10134;50.952;6.930;2022-07-05T05:22:43;2.60;;;2.05;;
19944;SDS011;10134;50.952;6.930;2022-07-05T05:25:11;4.57;;;2.38;;
19944;SDS011;10134;50.952;6.930;2022-07-05T05:27:42;2.88;;;2.30;;
19944;SDS011;10134;50.952;6.930;2022-07-05T05:30:16;3.25;;;2.20;;
19944;SDS011;10134;50.952;6.930;2022-07-05T05:32:44;4.55;;;2.35;;
19944;SDS011;10134;50.952;6.930;2022-07-05T05:35:11;4.85;;;2.33;;
19944;SDS011;10134;50.952;6.930;2022-07-05T05:37:49;9.43;;;2.70;;
19944;SDS011;10134;50.952;6.930;2022-07-05T05:40:21;6.07;;;3.08;;
19944;SDS011;10134;50.952;6.930;2022-07-05T05:42:50;5.90;;;2.20;;
19944;SDS011;10134;50.952;6.930;2022-07-05T05:45:18;4.22;;;2.63;;
19944;SDS011;10134;50.952;6.930;2022-07-05T05:47:49;3.80;;;2.25;;
19944;SDS011;10134;50.952;6.930;2022-07-05T05:50:22;3.30;;;2.55;;
19944;SDS011;10134;50.952;6.930;2022-07-05T05:52:53;6.90;;;2.20;;
19944;SDS011;10134;50.952;6.930;2022-07-05T05:55:21;4.05;;;2.22;;
19944;SDS011;10134;50.952;6.930;2022-07-05T05:57:49;4.03;;;2.88;;
19944;SDS011;10134;50.952;6.930;2022-07-05T06:00:17;6.97;;;2.90;;
19944;SDS011;10134;50.952;6.930;2022-07-05T06:02:46;5.57;;;2.60;;
19944;SDS011;10134;50.952;6.930;2022-07-05T06:05:14;3.65;;;1.83;;
19944;SDS011;10134;50.952;6.930;2022-07-05T06:07:50;4.53;;;2.35;;
19944;SDS011;10134;50.952;6.930;2022-07-05T06:10:22;4.82;;;2.03;;
19944;SDS011;10134;50.952;6.930;2022-07-05T06:12:51;3.53;;;2.55;;
19944;SDS011;10134;50.952;6.930;2022-07-05T06:15:20;5.00;;;3.13;;
19944;SDS011;10134;50.952;6.930;2022-07-05T06:17:48;7.43;;;3.85;;
19944;SDS011;10134;50.952;6.930;2022-07-05T06:20:19;4.57;;;3.25;;
19944;SDS011;10134;50.952;6.930;2022-07-05T06:22:48;3.65;;;2.05;;
19944;SDS011;10134;50.952;6.930;2022-07-05T06:25:16;3.47;;;2.00;;
19944;SDS011;10134;50.952;6.930;2022-07-05T06:27:50;4.00;;;1.70;;
19944;SDS011;10134;50.952;6.930;2022-07-05T06:30:20;4.03;;;1.50;;
19944;SDS011;10134;50.952;6.930;2022-07-05T06:32:49;2.42;;;1.30;;
19944;SDS011;10134;50.952;6.930;2022-07-05T06:35:17;2.13;;;1.40;;
19944;SDS011;10134;50.952;6.930;2022-07-05T06:37:52;3.65;;;1.83;;
19944;SDS011;10134;50.952;6.930;2022-07-05T06:40:20;5.20;;;2.22;;
19944;SDS011;10134;50.952;6.930;2022-07-05T06:42:53;3.38;;;1.77;;
19944;SDS011;10134;50.952;6.930;2022-07-05T06:45:24;4.78;;;2.00;;
19944;SDS011;10134;50.952;6.930;2022-07-05T06:47:56;5.45;;;2.20;;
19944;SDS011;10134;50.952;6.930;2022-07-05T06:50:34;3.92;;;2.20;;
19944;SDS011;10134;50.952;6.930;2022-07-05T06:53:04;5.03;;;2.33;;
19944;SDS011;10134;50.952;6.930;2022-07-05T06:55:32;3.80;;;1.80;;
19944;SDS011;10134;50.952;6.930;2022-07-05T06:58:00;4.43;;;2.05;;
19944;SDS011;10134;50.952;6.930;2022-07-05T07:00:38;6.57;;;2.05;;
19944;SDS011;10134;50.952;6.930;2022-07-05T07:03:26;3.92;;;1.95;;
19944;SDS011;10134;50.952;6.930;2022-07-05T07:06:14;5.85;;;2.60;;
19944;SDS011;10134;50.952;6.930;2022-07-05T07:08:42;4.03;;;2.20;;
19944;SDS011;10134;50.952;6.930;2022-07-05T07:11:45;7.35;;;2.60;;
19944;SDS011;10134;50.952;6.930;2022-07-05T07:14:12;3.72;;;1.80;;
19944;SDS011;10134;50.952;6.930;2022-07-05T07:16:40;5.22;;;2.53;;
19944;SDS011;10134;50.952;6.930;2022-07-05T07:19:07;3.85;;;1.45;;
19944;SDS011;10134;50.952;6.930;2022-07-05T07:21:40;3.95;;;1.98;;
19944;SDS011;10134;50.952;6.930;2022-07-05T07:24:08;2.65;;;2.17;;
19944;SDS011;10134;50.952;6.930;2022-07-05T07:26:36;3.75;;;2.20;;
19944;SDS011;10134;50.952;6.930;2022-07-05T07:29:22;5.00;;;2.05;;
19944;SDS011;10134;50.952;6.930;2022-07-05T07:31:50;2.08;;;1.52;;
19944;SDS011;10134;50.952;6.930;2022-07-05T07:34:17;4.35;;;1.88;;
19944;SDS011;10134;50.952;6.930;2022-07-05T07:36:44;4.15;;;1.50;;
19944;SDS011;10134;50.952;6.930;2022-07-05T07:39:11;3.38;;;1.80;;
19944;SDS011;10134;50.952;6.930;2022-07-05T07:41:39;3.85;;;2.13;;
19944;SDS011;10134;50.952;6.930;2022-07-05T07:44:06;3.33;;;1.50;;
19944;SDS011;10134;50.952;6.930;2022-07-05T07:46:34;2.83;;;1.92;;
19944;SDS011;10134;50.952;6.930;2022-07-05T07:49:01;6.57;;;2.05;;
19944;SDS011;10134;50.952;6.930;2022-07-05T07:51:29;4.57;;;1.80;;
19944;SDS011;10134;50.952;6.930;2022-07-05T07:53:56;2.83;;;2.03;;
19944;SDS011;10134;50.952;6.930;2022-07-05T07:56:29;2.50;;;1.90;;
19944;SDS011;10134;50.952;6.930;2022-07-05T07:58:57;3.67;;;2.00;;
19944;SDS011;10134;50.952;6.930;2022-07-05T08:01:24;3.47;;;2.08;;
19944;SDS011;10134;50.952;6.930;2022-07-05T08:03:52;3.58;;;1.98;;
19944;SDS011;10134;50.952;6.930;2022-07-05T08:06:19;2.80;;;2.08;;
19944;SDS011;10134;50.952;6.930;2022-07-05T08:08:47;4.70;;;2.30;;
19944;SDS011;10134;50.952;6.930;2022-07-05T08:11:14;4.47;;;2.15;;
19944;SDS011;10134;50.952;6.930;2022-07-05T08:13:42;2.17;;;1.80;;
19944;SDS011;10134;50.952;6.930;2022-07-05T08:16:09;2.78;;;2.10;;
19944;SDS011;10134;50.952;6.930;2022-07-05T08:18:37;3.28;;;1.98;;
19944;SDS011;10134;50.952;6.930;2022-07-05T08:21:23;3.63;;;1.70;;
19944;SDS011;10134;50.952;6.930;2022-07-05T08:24:05;3.08;;;1.40;;
19944;SDS011;10134;50.952;6.930;2022-07-05T08:26:37;3.30;;;1.55;;
19944;SDS011;10134;50.952;6.930;2022-07-05T08:29:10;1.67;;;1.20;;
19944;SDS011;10134;50.952;6.930;2022-07-05T08:31:42;1.67;;;1.45;;
19944;SDS011;10134;50.952;6.930;2022-07-05T08:34:14;3.15;;;1.48;;
19944;SDS011;10134;50.952;6.930;2022-07-05T08:36:44;1.73;;;1.20;;
19944;SDS011;10134;50.952;6.930;2022-07-05T08:39:13;2.00;;;1.83;;
19944;SDS011;10134;50.952;6.930;2022-07-05T08:41:42;1.88;;;1.35;;
19944;SDS011;10134;50.952;6.930;2022-07-05T08:44:10;2.92;;;1.73;;
19944;SDS011;10134;50.952;6.930;2022-07-05T08:46:43;2.75;;;1.55;;
19944;SDS011;10134;50.952;6.930;2022-07-05T08:49:10;4.95;;;1.80;;
19944;SDS011;10134;50.952;6.930;2022-07-05T08:51:41;4.88;;;1.73;;
19944;SDS011;10134;50.952;6.930;2022-07-05T08:54:09;2.75;;;1.50;;
19944;SDS011;10134;50.952;6.930;2022-07-05T08:56:42;5.28;;;1.58;;
19944;SDS011;10134;50.952;6.930;2022-07-05T08:59:31;3.40;;;1.63;;
19944;SDS011;10134;50.952;6.930;2022-07-05T09:01:58;1.95;;;1.63;;
19944;SDS011;10134;50.952;6.930;2022-07-05T09:04:28;4.47;;;1.52;;
19944;SDS011;10134;50.952;6.930;2022-07-05T09:07:04;3.03;;;1.60;;
19944;SDS011;10134;50.952;6.930;2022-07-05T09:09:38;2.75;;;1.70;;
19944;SDS011;10134;50.952;6.930;2022-07-05T09:12:11;1.50;;;1.40;;
19944;SDS011;10134;50.952;6.930;2022-07-05T09:14:51;3.25;;;1.75;;
19944;SDS011;10134;50.952;6.930;2022-07-05T09:17:19;2.97;;;1.80;;
19944;SDS011;10134;50.952;6.930;2022-07-05T09:22:44;2.40;;;1.80;;
19944;SDS011;10134;50.952;6.930;2022-07-05T09:25:22;2.00;;;1.20;;
19944;SDS011;10134;50.952;6.930;2022-07-05T09:28:01;5.03;;;1.20;;
19944;SDS011;10134;50.952;6.930;2022-07-05T09:30:34;2.25;;;1.35;;
19944;SDS011;10134;50.952;6.930;2022-07-05T09:33:07;2.30;;;1.60;;
19944;SDS011;10134;50.952;6.930;2022-07-05T09:35:40;2.95;;;1.60;;
19944;SDS011;10134;50.952;6.930;2022-07-05T09:38:18;2.17;;;1.83;;
19944;SDS011;10134;50.952;6.930;2022-07-05T09:41:08;1.92;;;1.40;;
19944;SDS011;10134;50.952;6.930;2022-07-05T09:43:37;1.90;;;1.63;;
19944;SDS011;10134;50.952;6.930;2022-07-05T09:46:05;2.80;;;1.60;;
19944;SDS011;10134;50.952;6.930;2022-07-05T09:48:33;4.55;;;1.90;;
19944;SDS011;10134;50.952;6.930;2022-07-05T09:51:09;2.42;;;1.65;;
19944;SDS011;10134;50.952;6.930;2022-07-05T09:54:00;2.75;;;1.70;;
19944;SDS011;10134;50.952;6.930;2022-07-05T09:56:47;2.35;;;1.50;;
19944;SDS011;10134;50.952;6.930;2022-07-05T09:59:19;2.95;;;1.33;;
19944;SDS011;10134;50.952;6.930;2022-07-05T10:01:49;3.42;;;1.83;;
19944;SDS011;10134;50.952;6.930;2022-07-05T10:04:18;3.22;;;1.42;;
19944;SDS011;10134;50.952;6.930;2022-07-05T10:06:45;4.80;;;1.73;;
19944;SDS011;10134;50.952;6.930;2022-07-05T10:09:13;2.88;;;1.55;;
19944;SDS011;10134;50.952;6.930;2022-07-05T10:11:42;3.70;;;1.48;;
19944;SDS011;10134;50.952;6.930;2022-07-05T10:14:13;4.53;;;2.00;;
19944;SDS011;10134;50.952;6.930;2022-07-05T10:16:46;5.47;;;1.65;;
19944;SDS011;10134;50.952;6.930;2022-07-05T10:19:19;2.75;;;1.60;;
19944;SDS011;10134;50.952;6.930;2022-07-05T10:21:48;2.72;;;1.83;;
19944;SDS011;10134;50.952;6.930;2022-07-05T10:24:36;3.17;;;1.58;;
19944;SDS011;10134;50.952;6.930;2022-07-05T10:27:05;2.92;;;1.40;;
19944;SDS011;10134;50.952;6.930;2022-07-05T10:29:34;2.13;;;1.58;;
19944;SDS011;10134;50.952;6.930;2022-07-05T10:32:03;4.70;;;1.63;;
19944;SDS011;10134;50.952;6.930;2022-07-05T10:34:33;1.60;;;1.23;;
19944;SDS011;10134;50.952;6.930;2022-07-05T10:37:21;2.35;;;1.23;;
19944;SDS011;10134;50.952;6.930;2022-07-05T10:39:52;2.35;;;2.13;;
19944;SDS011;10134;50.952;6.930;2022-07-05T10:42:20;3.88;;;1.30;;
19944;SDS011;10134;50.952;6.930;2022-07-05T10:44:49;3.65;;;1.52;;
19944;SDS011;10134;50.952;6.930;2022-07-05T10:47:16;3.92;;;1.48;;
19944;SDS011;10134;50.952;6.930;2022-07-05T10:49:59;2.13;;;1.70;;
19944;SDS011;10134;50.952;6.930;2022-07-05T10:52:27;1.85;;;1.45;;
19944;SDS011;10134;50.952;6.930;2022-07-05T10:55:17;2.42;;;1.58;;
19944;SDS011;10134;50.952;6.930;2022-07-05T11:00:47;3.63;;;1.50;;
19944;SDS011;10134;50.952;6.930;2022-07-05T11:03:35;2.35;;;1.20;;
19944;SDS011;10134;50.952;6.930;2022-07-05T11:06:04;2.65;;;1.20;;
19944;SDS011;10134;50.952;6.930;2022-07-05T11:11:35;2.13;;;1.30;;
19944;SDS011;10134;50.952;6.930;2022-07-05T11:20:02;6.78;;;1.70;;
19944;SDS011;10134;50.952;6.930;2022-07-05T11:22:33;3.42;;;1.50;;
19944;SDS011;10134;50.952;6.930;2022-07-05T11:25:02;3.55;;;1.73;;
19944;SDS011;10134;50.952;6.930;2022-07-05T11:27:31;2.67;;;1.20;;
19944;SDS011;10134;50.952;6.930;2022-07-05T11:30:00;6.22;;;1.55;;
19944;SDS011;10134;50.952;6.930;2022-07-05T11:35:13;4.07;;;1.52;;
19944;SDS011;10134;50.952;6.930;2022-07-05T11:40:54;2.83;;;1.52;;
19944;SDS011;10134;50.952;6.930;2022-07-05T11:43:28;2.15;;;1.40;;
19944;SDS011;10134;50.952;6.930;2022-07-05T11:45:57;2.47;;;1.15;;
19944;SDS011;10134;50.952;6.930;2022-07-05T11:48:29;1.88;;;1.10;;
19944;SDS011;10134;50.952;6.930;2022-07-05T11:50:56;3.80;;;1.45;;
19944;SDS011;10134;50.952;6.930;2022-07-05T11:53:28;5.57;;;1.67;;
19944;SDS011;10134;50.952;6.930;2022-07-05T11:56:18;1.85;;;1.30;;
19944;SDS011;10134;50.952;6.930;2022-07-05T11:58:45;4.15;;;1.65;;
19944;SDS011;10134;50.952;6.930;2022-07-05T12:01:12;3.58;;;1.30;;
19944;SDS011;10134;50.952;6.930;2022-07-05T12:03:40;2.47;;;1.20;;
19944;SDS011;10134;50.952;6.930;2022-07-05T12:06:11;1.38;;;1.23;;
19944;SDS011;10134;50.952;6.930;2022-07-05T12:08:42;4.43;;;1.30;;
19944;SDS011;10134;50.952;6.930;2022-07-05T12:11:10;1.65;;;1.20;;
19944;SDS011;10134;50.952;6.930;2022-07-05T12:13:57;1.95;;;1.10;;
19944;SDS011;10134;50.952;6.930;2022-07-05T12:16:25;2.30;;;1.40;;
19944;SDS011;10134;50.952;6.930;2022-07-05T12:18:53;3.58;;;1.10;;
19944;SDS011;10134;50.952;6.930;2022-07-05T12:21:22;6.30;;;0.98;;
19944;SDS011;10134;50.952;6.930;2022-07-05T12:23:50;1.27;;;1.00;;
19944;SDS011;10134;50.952;6.930;2022-07-05T12:26:18;2.05;;;1.20;;
19944;SDS011;10134;50.952;6.930;2022-07-05T12:28:48;1.48;;;0.90;;
19944;SDS011;10134;50.952;6.930;2022-07-05T12:31:20;3.25;;;1.10;;
19944;SDS011;10134;50.952;6.930;2022-07-05T12:33:49;3.22;;;1.17;;
19944;SDS011;10134;50.952;6.930;2022-07-05T12:36:19;4.10;;;1.05;;
19944;SDS011;10134;50.952;6.930;2022-07-05T12:38:50;2.05;;;1.23;;
19944;SDS011;10134;50.952;6.930;2022-07-05T12:41:24;1.25;;;1.00;;
19944;SDS011;10134;50.952;6.930;2022-07-05T12:43:55;3.50;;;1.45;;
19944;SDS011;10134;50.952;6.930;2022-07-05T12:46:37;2.30;;;1.15;;
19944;SDS011;10134;50.952;6.930;2022-07-05T12:49:09;2.33;;;1.00;;
19944;SDS011;10134;50.952;6.930;2022-07-05T12:51:42;2.22;;;0.95;;
19944;SDS011;10134;50.952;6.930;2022-07-05T12:54:20;1.05;;;0.93;;
19944;SDS011;10134;50.952;6.930;2022-07-05T12:57:07;4.18;;;1.35;;
19944;SDS011;10134;50.952;6.930;2022-07-05T13:00:00;1.50;;;1.20;;
19944;SDS011;10134;50.952;6.930;2022-07-05T13:02:39;2.20;;;0.93;;
19944;SDS011;10134;50.952;6.930;2022-07-05T13:05:09;3.13;;;1.13;;
19944;SDS011;10134;50.952;6.930;2022-07-05T13:07:49;1.52;;;1.35;;
19944;SDS011;10134;50.952;6.930;2022-07-05T13:10:25;2.10;;;1.25;;
19944;SDS011;10134;50.952;6.930;2022-07-05T13:13:07;1.27;;;1.00;;
19944;SDS011;10134;50.952;6.930;2022-07-05T13:15:36;1.52;;;1.20;;
19944;SDS011;10134;50.952;6.930;2022-07-05T13:18:04;3.30;;;1.02;;
19944;SDS011;10134;50.952;6.930;2022-07-05T13:20:32;3.92;;;1.33;;
19944;SDS011;10134;50.952;6.930;2022-07-05T13:22:59;3.58;;;1.30;;
19944;SDS011;10134;50.952;6.930;2022-07-05T13:25:26;1.63;;;1.17;;
19944;SDS011;10134;50.952;6.930;2022-07-05T13:27:54;1.02;;;0.93;;
19944;SDS011;10134;50.952;6.930;2022-07-05T13:30:22;1.55;;;1.05;;
19944;SDS011;10134;50.952;6.930;2022-07-05T13:32:49;1.77;;;1.15;;
19944;SDS011;10134;50.952;6.930;2022-07-05T13:35:17;3.75;;;1.55;;
19944;SDS011;10134;50.952;6.930;2022-07-05T13:37:44;4.40;;;1.60;;
19944;SDS011;10134;50.952;6.930;2022-07-05T13:40:11;2.47;;;1.25;;
19944;SDS011;10134;50.952;6.930;2022-07-05T13:42:39;4.05;;;1.55;;
19944;SDS011;10134;50.952;6.930;2022-07-05T13:45:06;3.10;;;1.70;;
19944;SDS011;10134;50.952;6.930;2022-07-05T13:47:34;4.38;;;1.52;;
19944;SDS011;10134;50.952;6.930;2022-07-05T13:50:01;4.78;;;1.30;;
19944;SDS011;10134;50.952;6.930;2022-07-05T13:52:47;4.28;;;1.60;;
19944;SDS011;10134;50.952;6.930;2022-07-05T13:55:14;3.72;;;1.20;;
19944;SDS011;10134;50.952;6.930;2022-07-05T13:57:41;2.92;;;1.60;;
19944;SDS011;10134;50.952;6.930;2022-07-05T14:00:10;1.75;;;1.08;;
19944;SDS011;10134;50.952;6.930;2022-07-05T14:02:39;1.65;;;1.33;;
19944;SDS011;10134;50.952;6.930;2022-07-05T14:05:06;2.13;;;1.20;;
19944;SDS011;10134;50.952;6.930;2022-07-05T14:07:34;2.22;;;1.30;;
19944;SDS011;10134;50.952;6.930;2022-07-05T14:10:02;5.10;;;2.63;;
19944;SDS011;10134;50.952;6.930;2022-07-05T14:12:30;1.42;;;1.30;;
19944;SDS011;10134;50.952;6.930;2022-07-05T14:14:58;3.92;;;1.30;;
19944;SDS011;10134;50.952;6.930;2022-07-05T14:17:25;3.80;;;1.30;;
19944;SDS011;10134;50.952;6.930;2022-07-05T14:19:52;2.10;;;1.20;;
19944;SDS011;10134;50.952;6.930;2022-07-05T14:22:20;3.17;;;1.60;;
19944;SDS011;10134;50.952;6.930;2022-07-05T14:24:47;1.90;;;1.40;;
19944;SDS011;10134;50.952;6.930;2022-07-05T14:27:14;1.20;;;1.02;;
19944;SDS011;10134;50.952;6.930;2022-07-05T14:29:41;2.38;;;1.40;;
19944;SDS011;10134;50.952;6.930;2022-07-05T14:32:09;4.05;;;1.52;;
19944;SDS011;10134;50.952;6.930;2022-07-05T14:34:36;2.40;;;1.10;;
19944;SDS011;10134;50.952;6.930;2022-07-05T14:37:04;1.20;;;0.93;;
19944;SDS011;10134;50.952;6.930;2022-07-05T14:39:31;3.72;;;1.58;;
19944;SDS011;10134;50.952;6.930;2022-07-05T14:41:58;3.13;;;2.22;;
19944;SDS011;10134;50.952;6.930;2022-07-05T14:44:25;2.15;;;1.27;;
19944;SDS011;10134;50.952;6.930;2022-07-05T14:46:53;4.20;;;1.30;;
19944;SDS011;10134;50.952;6.930;2022-07-05T14:49:20;2.50;;;1.38;;
19944;SDS011;10134;50.952;6.930;2022-07-05T14:51:47;2.08;;;1.60;;
19944;SDS011;10134;50.952;6.930;2022-07-05T14:54:15;2.60;;;1.40;;
19944;SDS011;10134;50.952;6.930;2022-07-05T14:56:42;2.30;;;1.17;;
19944;SDS011;10134;50.952;6.930;2022-07-05T14:59:09;1.65;;;1.52;;
19944;SDS011;10134;50.952;6.930;2022-07-05T15:01:36;12.43;;;2.05;;
19944;SDS011;10134;50.952;6.930;2022-07-05T15:04:04;1.80;;;1.48;;
19944;SDS011;10134;50.952;6.930;2022-07-05T15:06:31;2.55;;;1.60;;
19944;SDS011;10134;50.952;6.930;2022-07-05T15:08:58;4.53;;;1.63;;
19944;SDS011;10134;50.952;6.930;2022-07-05T15:11:26;2.42;;;1.58;;
19944;SDS011;10134;50.952;6.930;2022-07-05T15:13:54;2.55;;;1.73;;
19944;SDS011;10134;50.952;6.930;2022-07-05T15:16:22;2.75;;;1.25;;
19944;SDS011;10134;50.952;6.930;2022-07-05T15:18:49;6.88;;;1.63;;
19944;SDS011;10134;50.952;6.930;2022-07-05T15:21:17;1.45;;;1.20;;
19944;SDS011;10134;50.952;6.930;2022-07-05T15:23:44;2.22;;;1.30;;
19944;SDS011;10134;50.952;6.930;2022-07-05T15:26:12;2.42;;;1.67;;